createdAt,value
2018-06-23T00:00:06.231Z,6.13
2018-06-23T00:02:34.024Z,7.70
2018-06-23T00:05:01.840Z,13.90
2018-06-23T00:07:29.641Z,8.70
2018-06-23T00:09:57.450Z,9.20
2018-06-23T00:12:25.238Z,12.00
2018-06-23T00:14:53.056Z,15.03
2018-06-23T00:17:20.970Z,7.93
2018-06-23T00:19:48.779Z,9.53
2018-06-23T00:22:16.583Z,11.10
2018-06-23T00:24:44.589Z,6.77
2018-06-23T00:27:12.407Z,11.47
2018-06-23T00:29:40.227Z,14.00
2018-06-23T00:32:08.017Z,7.73
2018-06-23T00:34:35.839Z,16.10
2018-06-23T00:37:03.634Z,8.30
2018-06-23T00:39:31.476Z,12.23
2018-06-23T00:41:59.318Z,10.70
2018-06-23T00:44:27.112Z,12.17
2018-06-23T00:46:54.913Z,7.50
2018-06-23T00:49:22.716Z,8.20
2018-06-23T00:51:50.553Z,11.87
2018-06-23T00:54:18.347Z,11.30
2018-06-23T00:56:46.180Z,10.23
2018-06-23T00:59:19.505Z,8.57
2018-06-23T01:01:47.323Z,11.63
2018-06-23T01:04:15.120Z,12.10
2018-06-23T01:06:42.939Z,19.47
2018-06-23T01:09:11.116Z,16.67
2018-06-23T01:11:38.966Z,14.23
2018-06-23T01:14:06.879Z,14.33
2018-06-23T01:16:34.689Z,13.07
2018-06-23T01:19:02.490Z,14.20
2018-06-23T01:21:30.327Z,15.93
2018-06-23T01:23:58.146Z,18.53
2018-06-23T01:26:25.990Z,13.97
2018-06-23T01:28:53.819Z,14.70
2018-06-23T01:31:21.620Z,16.50
2018-06-23T01:33:49.418Z,16.93
2018-06-23T01:36:17.249Z,13.93
2018-06-23T01:38:45.053Z,20.17
2018-06-23T01:41:12.875Z,22.83
2018-06-23T01:43:40.683Z,14.30
2018-06-23T01:46:08.491Z,17.20
2018-06-23T01:48:36.294Z,14.87
2018-06-23T01:51:04.273Z,16.23
2018-06-23T01:53:32.066Z,13.27
2018-06-23T01:55:59.883Z,17.03
2018-06-23T01:58:27.693Z,20.50
2018-06-23T02:00:55.500Z,15.70
2018-06-23T02:03:23.307Z,15.73
2018-06-23T02:05:51.145Z,21.83
2018-06-23T02:08:19.013Z,15.80
2018-06-23T02:10:46.831Z,15.10
2018-06-23T02:13:14.638Z,17.00
2018-06-23T02:15:47.983Z,20.37
2018-06-23T02:18:21.342Z,17.27
2018-06-23T02:20:54.588Z,20.70
2018-06-23T02:23:27.950Z,13.77
2018-06-23T02:26:01.352Z,16.07
2018-06-23T02:28:34.681Z,15.67
2018-06-23T02:31:07.822Z,18.23
2018-06-23T02:33:41.061Z,18.77
2018-06-23T02:36:08.879Z,23.60
2018-06-23T02:38:36.686Z,23.43
2018-06-23T02:41:04.520Z,18.27
2018-06-23T02:43:32.337Z,22.10
2018-06-23T02:46:00.162Z,18.83
2018-06-23T02:48:27.977Z,20.23
2018-06-23T02:50:55.770Z,19.80
2018-06-23T02:53:23.599Z,19.93
2018-06-23T02:55:51.490Z,21.37
2018-06-23T02:58:19.312Z,20.30
2018-06-23T03:00:47.202Z,31.00
2018-06-23T03:03:15.024Z,21.90
2018-06-23T03:05:42.849Z,24.60
2018-06-23T03:08:10.672Z,26.93
2018-06-23T03:10:38.475Z,25.00
2018-06-23T03:13:06.300Z,22.37
2018-06-23T03:15:34.112Z,30.20
2018-06-23T03:18:01.950Z,30.10
2018-06-23T03:20:30.679Z,29.73
2018-06-23T03:22:58.774Z,26.90
2018-06-23T03:25:26.588Z,20.70
2018-06-23T03:27:54.421Z,26.80
2018-06-23T03:30:22.379Z,24.63
2018-06-23T03:32:50.210Z,27.47
2018-06-23T03:35:18.007Z,26.77
2018-06-23T03:37:45.842Z,24.93
2018-06-23T03:40:13.639Z,26.60
2018-06-23T03:42:41.451Z,20.07
2018-06-23T03:45:09.460Z,31.00
2018-06-23T03:47:37.392Z,21.30
2018-06-23T03:50:05.208Z,36.13
2018-06-23T03:52:33.049Z,29.33
2018-06-23T03:55:00.852Z,21.03
2018-06-23T03:57:28.669Z,28.60
2018-06-23T03:59:56.495Z,23.17
2018-06-23T04:02:24.312Z,29.40
2018-06-23T04:04:52.131Z,20.33
2018-06-23T04:07:19.947Z,26.63
2018-06-23T04:09:47.759Z,28.77
2018-06-23T04:12:15.606Z,25.90
2018-06-23T04:14:43.426Z,30.43
2018-06-23T04:17:11.246Z,25.37
2018-06-23T04:19:39.051Z,25.40
2018-06-23T04:22:06.880Z,27.87
2018-06-23T04:24:34.706Z,37.37
2018-06-23T04:27:02.519Z,27.80
2018-06-23T04:29:30.347Z,31.93
2018-06-23T04:31:58.153Z,31.63
2018-06-23T04:34:26.019Z,34.07
2018-06-23T04:36:53.838Z,29.70
2018-06-23T04:39:21.682Z,28.33
2018-06-23T04:41:49.479Z,28.30
2018-06-23T04:44:17.312Z,43.30
2018-06-23T04:46:45.112Z,29.67
2018-06-23T04:49:12.988Z,34.97
2018-06-23T04:51:40.781Z,40.60
2018-06-23T04:54:08.595Z,33.40
2018-06-23T04:56:36.398Z,42.40
2018-06-23T04:59:04.223Z,41.20
2018-06-23T05:01:32.023Z,39.10
2018-06-23T05:03:59.859Z,34.07
2018-06-23T05:06:27.668Z,36.53
2018-06-23T05:08:55.490Z,38.07
2018-06-23T05:11:23.303Z,36.13
2018-06-23T05:13:51.134Z,45.60
2018-06-23T05:16:18.948Z,40.20
2018-06-23T05:18:46.805Z,40.77
2018-06-23T05:21:14.611Z,35.50
2018-06-23T05:23:42.440Z,41.17
2018-06-23T05:26:10.250Z,30.47
2018-06-23T05:28:38.114Z,39.43
2018-06-23T05:31:05.959Z,41.03
2018-06-23T05:33:33.832Z,31.30
2018-06-23T05:36:01.674Z,37.07
2018-06-23T05:38:29.568Z,34.80
2018-06-23T05:40:57.355Z,44.30
2018-06-23T05:43:25.261Z,37.30
2018-06-23T05:45:53.108Z,37.63
2018-06-23T05:48:20.943Z,34.90
2018-06-23T05:50:48.788Z,36.00
2018-06-23T05:53:16.653Z,36.93
2018-06-23T05:55:44.491Z,40.60
2018-06-23T05:58:12.353Z,30.03
2018-06-23T06:00:40.257Z,33.53
2018-06-23T06:03:08.078Z,31.50
2018-06-23T06:05:35.944Z,37.13
2018-06-23T06:08:03.879Z,34.60
2018-06-23T06:10:31.721Z,28.37
2018-06-23T06:12:59.544Z,33.93
2018-06-23T06:15:27.404Z,36.60
2018-06-23T06:17:55.223Z,36.20
2018-06-23T06:20:23.072Z,27.00
2018-06-23T06:22:50.886Z,30.50
2018-06-23T06:25:19.785Z,30.27
2018-06-23T06:27:47.726Z,31.87
2018-06-23T06:30:15.570Z,26.30
2018-06-23T06:32:43.417Z,30.63
2018-06-23T06:35:11.283Z,30.47
2018-06-23T06:37:39.189Z,32.73
2018-06-23T06:40:07.648Z,25.67
2018-06-23T06:42:35.518Z,24.27
2018-06-23T06:45:03.440Z,29.67
2018-06-23T06:47:31.404Z,27.13
2018-06-23T06:49:59.263Z,23.37
2018-06-23T06:52:27.079Z,26.77
2018-06-23T06:54:55.266Z,30.63
2018-06-23T06:57:23.375Z,29.00
2018-06-23T06:59:51.641Z,25.73
2018-06-23T07:02:19.975Z,24.17
2018-06-23T07:04:47.833Z,22.40
2018-06-23T07:07:15.655Z,23.60
2018-06-23T07:09:43.483Z,16.97
2018-06-23T07:12:11.386Z,23.43
2018-06-23T07:17:13.566Z,24.13
2018-06-23T07:19:41.466Z,25.03
2018-06-23T07:22:09.383Z,22.43
2018-06-23T07:24:37.264Z,25.87
2018-06-23T07:27:05.126Z,23.83
2018-06-23T07:29:32.971Z,20.10
2018-06-23T07:32:00.791Z,22.40
2018-06-23T07:34:28.733Z,17.10
2018-06-23T07:36:56.453Z,21.00
2018-06-23T07:39:24.491Z,20.90
2018-06-23T07:41:52.294Z,12.00
2018-06-23T07:44:20.125Z,17.63
2018-06-23T07:46:47.950Z,20.97
2018-06-23T07:49:15.782Z,20.37
2018-06-23T07:51:43.610Z,23.03
2018-06-23T07:54:11.443Z,18.53
2018-06-23T07:56:39.288Z,22.00
2018-06-23T07:59:07.098Z,21.60
2018-06-23T08:01:35.079Z,24.70
2018-06-23T08:04:02.842Z,25.87
2018-06-23T08:06:30.658Z,17.30
2018-06-23T08:08:58.466Z,21.13
2018-06-23T08:11:26.302Z,18.63
2018-06-23T08:13:54.102Z,16.40
2018-06-23T08:16:21.940Z,17.57
2018-06-23T08:18:55.585Z,15.33
2018-06-23T08:21:28.837Z,16.93
2018-06-23T08:23:58.299Z,21.30
2018-06-23T08:26:26.195Z,14.10
2018-06-23T08:28:54.171Z,13.70
2018-06-23T08:31:22.031Z,17.43
2018-06-23T08:33:49.846Z,14.03
2018-06-23T08:36:17.742Z,12.53
2018-06-23T08:39:09.805Z,12.23
2018-06-23T08:41:40.844Z,14.90
2018-06-23T08:44:11.359Z,15.97
2018-06-23T08:46:39.747Z,17.63
2018-06-23T08:49:13.064Z,11.37
2018-06-23T08:51:46.412Z,17.60
2018-06-23T08:54:14.320Z,19.63
2018-06-23T08:56:42.280Z,15.50
2018-06-23T08:59:10.086Z,10.53
2018-06-23T09:01:38.119Z,9.83
2018-06-23T09:04:06.262Z,16.23
2018-06-23T09:06:34.095Z,8.47
2018-06-23T09:09:18.507Z,13.90
2018-06-23T09:11:56.862Z,14.27
2018-06-23T09:14:26.049Z,14.20
2018-06-23T09:16:53.956Z,16.97
2018-06-23T09:19:21.714Z,17.70
2018-06-23T09:21:49.562Z,11.83
2018-06-23T09:24:18.679Z,12.33
2018-06-23T09:26:47.432Z,14.97
2018-06-23T09:29:15.489Z,13.63
2018-06-23T09:31:45.348Z,18.83
2018-06-23T09:34:20.316Z,11.60
2018-06-23T09:36:48.783Z,11.10
2018-06-23T09:39:17.148Z,17.00
2018-06-23T09:41:45.943Z,13.80
2018-06-23T09:44:13.937Z,10.30
2018-06-23T09:46:41.770Z,12.50
2018-06-23T09:49:09.574Z,7.53
2018-06-23T09:51:37.557Z,14.17
2018-06-23T09:54:05.375Z,9.03
2018-06-23T09:56:33.215Z,15.63
2018-06-23T09:59:01.058Z,8.37
2018-06-23T10:01:29.137Z,11.30
2018-06-23T10:03:57.187Z,9.00
2018-06-23T10:06:25.022Z,12.23
2018-06-23T10:08:52.839Z,8.57
2018-06-23T10:11:20.690Z,14.33
2018-06-23T10:13:48.503Z,10.77
2018-06-23T10:16:16.323Z,10.97
2018-06-23T10:18:44.145Z,6.10
2018-06-23T10:21:12.071Z,13.27
2018-06-23T10:23:40.131Z,15.77
2018-06-23T10:26:08.987Z,17.97
2018-06-23T10:28:36.836Z,12.67
2018-06-23T10:31:04.713Z,11.27
2018-06-23T10:33:32.523Z,8.30
2018-06-23T10:36:00.320Z,11.57
2018-06-23T10:38:28.169Z,8.80
2018-06-23T10:41:05.368Z,13.77
2018-06-23T10:43:33.246Z,16.97
2018-06-23T10:46:01.058Z,13.33
2018-06-23T10:48:28.894Z,11.23
2018-06-23T10:50:56.702Z,9.90
2018-06-23T10:53:24.531Z,8.20
2018-06-23T10:55:52.330Z,9.70
2018-06-23T10:58:20.155Z,12.60
2018-06-23T11:00:47.962Z,8.10
2018-06-23T11:03:15.809Z,12.47
2018-06-23T11:05:43.654Z,10.93
2018-06-23T11:08:11.475Z,9.80
2018-06-23T11:10:39.274Z,16.10
2018-06-23T11:13:07.217Z,10.40
2018-06-23T11:15:35.022Z,7.80
2018-06-23T11:18:02.838Z,9.03
2018-06-23T11:20:30.646Z,11.57
2018-06-23T11:22:58.474Z,12.30
2018-06-23T11:25:26.277Z,12.57
2018-06-23T11:27:54.130Z,8.10
2018-06-23T11:30:21.938Z,9.57
2018-06-23T11:32:49.778Z,11.30
2018-06-23T11:35:17.593Z,9.90
2018-06-23T11:37:45.420Z,8.50
2018-06-23T11:40:13.274Z,10.20
2018-06-23T11:42:41.103Z,13.10
2018-06-23T11:45:08.913Z,11.17
2018-06-23T11:47:36.727Z,9.10
2018-06-23T11:50:04.569Z,13.50
2018-06-23T11:52:32.420Z,12.93
2018-06-23T11:55:00.211Z,9.30
2018-06-23T11:57:28.030Z,17.33
2018-06-23T11:59:55.847Z,11.10
2018-06-23T12:02:23.667Z,9.27
2018-06-23T12:04:51.466Z,12.37
2018-06-23T12:07:19.428Z,11.37
2018-06-23T12:09:47.236Z,12.40
2018-06-23T12:12:15.102Z,8.53
2018-06-23T12:14:42.908Z,10.10
2018-06-23T12:17:11.151Z,7.40
2018-06-23T12:19:38.948Z,6.90
2018-06-23T12:22:06.751Z,11.47
2018-06-23T12:24:34.573Z,11.97
2018-06-23T12:27:02.423Z,10.07
2018-06-23T12:29:30.249Z,15.77
2018-06-23T12:31:58.069Z,12.30
2018-06-23T12:34:26.025Z,9.50
2018-06-23T12:36:53.910Z,9.53
2018-06-23T12:39:21.759Z,10.23
2018-06-23T12:41:49.554Z,8.23
2018-06-23T12:44:17.468Z,9.00
2018-06-23T12:46:45.240Z,10.80
2018-06-23T12:49:13.121Z,13.00
2018-06-23T12:51:40.917Z,10.27
2018-06-23T12:54:08.835Z,8.60
2018-06-23T12:56:36.803Z,10.13
2018-06-23T12:59:04.690Z,11.03
2018-06-23T13:01:32.525Z,11.83
2018-06-23T13:04:00.355Z,10.80
2018-06-23T13:06:28.167Z,11.37
2018-06-23T13:08:56.002Z,15.30
2018-06-23T13:11:23.803Z,9.33
2018-06-23T13:13:51.622Z,12.50
2018-06-23T13:16:19.443Z,13.57
2018-06-23T13:18:47.271Z,13.90
2018-06-23T13:21:15.078Z,14.23
2018-06-23T13:23:42.907Z,11.80
2018-06-23T13:26:10.755Z,13.27
2018-06-23T13:28:38.594Z,12.20
2018-06-23T13:31:06.432Z,15.40
2018-06-23T13:33:34.262Z,12.47
2018-06-23T13:36:02.071Z,16.07
2018-06-23T13:38:29.899Z,12.80
2018-06-23T13:41:00.818Z,13.53
2018-06-23T13:43:28.646Z,12.17
2018-06-23T13:45:56.461Z,13.03
2018-06-23T13:48:24.296Z,16.27
2018-06-23T13:50:52.094Z,19.07
2018-06-23T13:53:20.068Z,13.90
2018-06-23T13:55:47.879Z,12.40
2018-06-23T13:58:15.776Z,16.07
2018-06-23T14:03:17.824Z,14.03
2018-06-23T14:05:45.624Z,14.83
2018-06-23T14:08:20.073Z,12.77
2018-06-23T14:10:47.875Z,15.43
2018-06-23T14:13:15.717Z,9.70
2018-06-23T14:15:43.555Z,20.43
2018-06-23T14:18:11.355Z,9.07
2018-06-23T14:20:41.534Z,17.40
2018-06-23T14:23:09.634Z,14.43
2018-06-23T14:25:37.461Z,13.90
2018-06-23T14:28:05.419Z,12.40
2018-06-23T14:30:33.646Z,13.10
2018-06-23T14:33:01.472Z,12.70
2018-06-23T14:35:29.471Z,12.20
2018-06-23T14:38:01.408Z,10.43
2018-06-23T14:40:31.216Z,15.53
2018-06-23T14:42:59.024Z,19.47
2018-06-23T14:45:26.843Z,15.70
2018-06-23T14:47:54.645Z,17.13
2018-06-23T14:50:22.536Z,12.60
2018-06-23T14:52:50.509Z,11.07
2018-06-23T14:55:18.370Z,15.53
2018-06-23T14:57:46.178Z,11.83
2018-06-23T15:00:18.651Z,18.10
2018-06-23T15:02:47.910Z,12.47
2018-06-23T15:05:15.970Z,14.70
2018-06-23T15:07:43.770Z,14.33
2018-06-23T15:10:17.299Z,12.70
2018-06-23T15:12:50.727Z,11.97
2018-06-23T15:15:18.553Z,11.70
2018-06-23T15:17:46.360Z,12.20
2018-06-23T15:20:14.178Z,9.30
2018-06-23T15:22:42.619Z,10.47
2018-06-23T15:25:10.457Z,15.50
2018-06-23T15:27:38.294Z,10.57
2018-06-23T15:30:06.251Z,13.90
2018-06-23T15:32:34.100Z,9.33
2018-06-23T15:35:01.918Z,9.70
2018-06-23T15:37:29.731Z,12.80
2018-06-23T15:39:57.589Z,9.00
2018-06-23T15:42:25.350Z,9.50
2018-06-23T15:44:53.188Z,13.17
2018-06-23T15:47:21.103Z,8.93
2018-06-23T15:49:48.914Z,9.40
2018-06-23T15:52:16.721Z,7.83
2018-06-23T15:54:44.530Z,7.93
2018-06-23T15:57:12.351Z,8.63
2018-06-23T15:59:40.171Z,10.50
2018-06-23T16:02:07.993Z,10.10
2018-06-23T16:04:35.794Z,5.70
2018-06-23T16:07:03.630Z,13.33
2018-06-23T16:09:31.438Z,9.37
2018-06-23T16:11:59.259Z,9.30
2018-06-23T16:14:27.087Z,15.10
2018-06-23T16:16:54.918Z,8.33
2018-06-23T16:19:22.737Z,7.87
2018-06-23T16:21:50.563Z,12.60
2018-06-23T16:24:18.602Z,12.13
2018-06-23T16:26:46.460Z,6.73
2018-06-23T16:29:14.259Z,7.57
2018-06-23T16:31:42.088Z,7.90
2018-06-23T16:34:09.907Z,8.60
2018-06-23T16:36:37.747Z,10.43
2018-06-23T16:39:07.614Z,10.63
2018-06-23T16:41:35.763Z,7.30
2018-06-23T16:44:03.946Z,8.03
2018-06-23T16:46:31.827Z,9.97
2018-06-23T16:48:59.703Z,9.27
2018-06-23T16:51:27.919Z,6.67
2018-06-23T16:53:55.778Z,7.73
2018-06-23T16:56:23.758Z,7.03
2018-06-23T16:58:51.589Z,4.17
2018-06-23T17:01:19.382Z,11.53
2018-06-23T17:03:47.301Z,10.87
2018-06-23T17:06:15.091Z,9.83
2018-06-23T17:08:42.919Z,9.00
2018-06-23T17:11:10.942Z,10.63
2018-06-23T17:13:38.773Z,4.67
2018-06-23T17:16:06.586Z,8.70
2018-06-23T17:18:34.408Z,9.73
2018-06-23T17:21:02.215Z,8.57
2018-06-23T17:23:30.036Z,5.97
2018-06-23T17:25:57.836Z,5.53
2018-06-23T17:28:25.683Z,6.97
2018-06-23T17:30:53.474Z,12.17
2018-06-23T17:33:21.306Z,6.87
2018-06-23T17:35:49.194Z,6.40
2018-06-23T17:38:17.012Z,5.00
2018-06-23T17:40:44.824Z,7.73
2018-06-23T17:43:12.655Z,11.43
2018-06-23T17:45:40.451Z,9.93
2018-06-23T17:48:08.278Z,6.13
2018-06-23T17:50:36.106Z,8.43
2018-06-23T17:53:03.973Z,7.70
2018-06-23T17:55:32.635Z,14.40
2018-06-23T17:58:00.470Z,10.63
2018-06-23T18:00:28.290Z,7.47
2018-06-23T18:02:56.191Z,10.30
2018-06-23T18:05:24.035Z,10.17
2018-06-23T18:07:51.863Z,8.67
2018-06-23T18:10:19.689Z,5.20
2018-06-23T18:12:47.539Z,7.80
2018-06-23T18:15:15.421Z,9.67
2018-06-23T18:17:43.266Z,13.13
2018-06-23T18:20:11.672Z,11.87
2018-06-23T18:22:40.397Z,7.23
2018-06-23T18:25:08.393Z,8.70
2018-06-23T18:27:36.336Z,8.77
2018-06-23T18:30:04.515Z,10.33
2018-06-23T18:32:32.343Z,7.17
2018-06-23T18:35:00.193Z,9.73
2018-06-23T18:37:28.023Z,7.63
2018-06-23T18:39:56.268Z,10.37
2018-06-23T18:42:24.161Z,9.90
2018-06-23T18:44:52.024Z,14.57
2018-06-23T18:47:20.323Z,11.43
2018-06-23T18:49:48.232Z,14.83
2018-06-23T18:52:17.283Z,9.17
2018-06-23T18:54:45.519Z,12.77
2018-06-23T18:57:13.466Z,11.80
2018-06-23T18:59:41.447Z,14.00
2018-06-23T19:02:09.343Z,12.57
2018-06-23T19:04:37.171Z,11.60
2018-06-23T19:07:04.998Z,6.73
2018-06-23T19:09:33.010Z,9.73
2018-06-23T19:12:00.845Z,7.70
2018-06-23T19:14:28.658Z,9.90
2018-06-23T19:16:56.482Z,13.87
2018-06-23T19:19:24.334Z,14.23
2018-06-23T19:21:52.139Z,7.13
2018-06-23T19:24:20.029Z,10.13
2018-06-23T19:26:47.876Z,11.50
2018-06-23T19:29:15.734Z,10.97
2018-06-23T19:31:43.566Z,13.37
2018-06-23T19:34:11.406Z,6.27
2018-06-23T19:36:39.578Z,8.53
2018-06-23T19:39:08.177Z,9.70
2018-06-23T19:41:36.023Z,8.17
2018-06-23T19:44:03.909Z,11.40
2018-06-23T19:46:31.691Z,15.10
2018-06-23T19:49:00.247Z,8.93
2018-06-23T19:51:28.060Z,6.77
2018-06-23T19:53:55.949Z,7.20
2018-06-23T19:56:23.735Z,9.00
2018-06-23T19:58:51.614Z,6.53
2018-06-23T20:01:19.403Z,7.50
2018-06-23T20:03:47.249Z,12.63
2018-06-23T20:06:15.082Z,9.57
2018-06-23T20:08:42.908Z,9.83
2018-06-23T20:11:10.738Z,9.47
2018-06-23T20:13:38.566Z,11.60
2018-06-23T20:16:06.395Z,11.30
2018-06-23T20:18:34.230Z,9.37
2018-06-23T20:21:02.064Z,14.67
2018-06-23T20:23:29.887Z,8.20
2018-06-23T20:25:57.734Z,10.63
2018-06-23T20:28:25.577Z,8.27
2018-06-23T20:30:53.399Z,11.03
2018-06-23T20:33:21.232Z,8.47
2018-06-23T20:35:49.038Z,12.40
2018-06-23T20:38:16.887Z,10.03
2018-06-23T20:40:44.755Z,10.17
2018-06-23T20:43:12.818Z,11.23
2018-06-23T20:45:40.644Z,10.73
2018-06-23T20:48:08.488Z,10.90
2018-06-23T20:50:36.350Z,8.33
2018-06-23T20:53:04.231Z,12.50
2018-06-23T20:55:32.028Z,8.80
2018-06-23T20:57:59.835Z,11.40
2018-06-23T21:00:27.700Z,8.00
2018-06-23T21:02:55.514Z,11.50
2018-06-23T21:05:23.342Z,10.77
2018-06-23T21:07:51.157Z,9.87
2018-06-23T21:10:35.939Z,15.63
2018-06-23T21:13:03.759Z,12.20
2018-06-23T21:15:32.065Z,8.67
2018-06-23T21:17:59.928Z,9.07
2018-06-23T21:20:27.763Z,10.30
2018-06-23T21:22:56.316Z,10.67
2018-06-23T21:25:24.388Z,8.47
2018-06-23T21:27:52.223Z,7.50
2018-06-23T21:30:20.182Z,10.00
2018-06-23T21:32:47.988Z,9.27
2018-06-23T21:35:15.909Z,13.03
2018-06-23T21:37:43.751Z,9.00
2018-06-23T21:40:11.679Z,8.30
2018-06-23T21:42:39.427Z,13.70
2018-06-23T21:45:07.262Z,9.70
2018-06-23T21:47:35.154Z,11.47
2018-06-23T21:50:02.947Z,12.40
2018-06-23T21:52:30.915Z,15.10
2018-06-23T21:54:58.745Z,9.67
2018-06-23T21:57:26.572Z,11.03
2018-06-23T21:59:54.412Z,10.90
2018-06-23T22:02:22.219Z,7.47
2018-06-23T22:04:50.055Z,8.77
2018-06-23T22:07:17.862Z,9.80
2018-06-23T22:09:45.697Z,11.50
2018-06-23T22:12:13.551Z,7.63
2018-06-23T22:14:41.394Z,12.37
2018-06-23T22:17:09.207Z,9.50
2018-06-23T22:19:37.042Z,8.07
2018-06-23T22:22:04.862Z,8.37
2018-06-23T22:24:32.805Z,8.60
2018-06-23T22:27:00.636Z,8.00
2018-06-23T22:29:28.513Z,11.57
2018-06-23T22:31:56.291Z,11.83
2018-06-23T22:34:24.157Z,9.10
2018-06-23T22:36:51.973Z,11.07
2018-06-23T22:39:19.848Z,17.67
2018-06-23T22:41:47.624Z,20.90
2018-06-23T22:44:15.447Z,13.40
2018-06-23T22:46:43.270Z,11.53
2018-06-23T22:49:11.099Z,14.10
2018-06-23T22:51:38.939Z,11.60
2018-06-23T22:54:06.763Z,8.33
2018-06-23T22:56:34.583Z,13.70
2018-06-23T22:59:02.438Z,12.87
2018-06-23T23:01:30.254Z,10.47
2018-06-23T23:03:58.067Z,11.83
2018-06-23T23:06:25.903Z,9.70
2018-06-23T23:08:53.714Z,14.17
2018-06-23T23:11:21.577Z,9.60
2018-06-23T23:13:49.386Z,7.80
2018-06-23T23:16:17.210Z,11.20
2018-06-23T23:18:45.024Z,16.70
2018-06-23T23:21:12.856Z,7.40
2018-06-23T23:23:40.683Z,12.43
2018-06-23T23:26:08.524Z,10.93
2018-06-23T23:28:36.338Z,10.43
2018-06-23T23:31:04.189Z,9.47
2018-06-23T23:33:31.995Z,8.17
2018-06-23T23:35:59.811Z,9.47
2018-06-23T23:38:27.675Z,15.30
2018-06-23T23:40:55.527Z,10.77
2018-06-23T23:43:23.335Z,11.33
2018-06-23T23:45:51.188Z,15.10
2018-06-23T23:48:18.994Z,12.40
2018-06-23T23:50:46.839Z,9.20
2018-06-23T23:53:14.670Z,12.20
2018-06-23T23:55:42.526Z,11.20
2018-06-23T23:58:10.414Z,9.67
